Time,TemperatureF,DewpointF,PressureIn,WindDirection,WindDirectionDegrees,WindSpeedMPH,WindSpeedGustMPH,Humidity,HourlyPrecipIn,Conditions,Clouds,dailyrainin,SoftwareType,DateUTC
2013-08-08 00:01:00,66.6,47.9,29.85,East,98,1.0,2.0,51,0.00,,,0.00,Wunderground v.1.15,2013-08-08 07:01:00,
2013-08-08 00:08:00,65.8,48.2,29.85,East,98,1.0,2.0,53,0.00,,,0.00,Wunderground v.1.15,2013-08-08 07:08:00,
2013-08-08 00:14:00,65.4,48.8,29.85,East,98,0.0,1.0,55,0.00,,,0.00,Wunderground v.1.15,2013-08-08 07:14:00,
2013-08-08 00:19:00,65.1,47.5,29.84,East,98,0.0,0.0,53,0.00,,,0.00,Wunderground v.1.15,2013-08-08 07:19:00,
2013-08-08 00:26:00,64.7,49.6,29.85,East,97,1.0,7.0,58,0.00,,,0.00,Wunderground v.1.15,2013-08-08 07:26:00,
2013-08-08 00:32:00,64.1,48.5,29.85,East,97,2.0,2.0,57,0.00,,,0.00,Wunderground v.1.15,2013-08-08 07:32:00,
2013-08-08 00:37:00,64.0,48.0,29.85,East,97,0.0,2.0,56,0.00,,,0.00,Wunderground v.1.15,2013-08-08 07:37:00,
2013-08-08 00:43:00,64.1,48.5,29.84,East,97,0.0,0.0,57,0.00,,,0.00,Wunderground v.1.15,2013-08-08 07:43:00,
2013-08-08 00:50:00,64.4,47.4,29.84,East,97,0.0,0.0,54,0.00,,,0.00,Wunderground v.1.15,2013-08-08 07:50:00,
2013-08-08 00:56:00,64.5,48.9,29.84,East,97,0.0,1.0,57,0.00,,,0.00,Wunderground v.1.15,2013-08-08 07:56:00,
2013-08-08 01:01:00,64.3,47.8,29.85,East,97,0.0,0.0,55,0.00,,,0.00,Wunderground v.1.15,2013-08-08 08:01:00,
2013-08-08 01:08:00,64.2,48.2,29.85,East,97,0.0,0.0,56,0.00,,,0.00,Wunderground v.1.15,2013-08-08 08:08:00,
2013-08-08 01:14:00,64.2,47.2,29.85,East,97,0.0,0.0,54,0.00,,,0.00,Wunderground v.1.15,2013-08-08 08:14:00,
2013-08-08 01:20:00,64.2,48.6,29.86,East,97,0.0,0.0,57,0.00,,,0.00,Wunderground v.1.15,2013-08-08 08:20:00,
2013-08-08 01:25:00,64.0,48.0,29.86,East,97,0.0,1.0,56,0.00,,,0.00,Wunderground v.1.15,2013-08-08 08:25:00,
2013-08-08 01:32:00,63.6,47.1,29.86,ESE,107,1.0,2.0,55,0.00,,,0.00,Wunderground v.1.15,2013-08-08 08:32:00,
2013-08-08 01:38:00,63.5,46.6,29.86,ESE,111,2.0,2.0,54,0.00,,,0.00,Wunderground v.1.15,2013-08-08 08:38:00,
2013-08-08 01:43:00,63.5,45.6,29.86,ESE,111,1.0,2.0,52,0.00,,,0.00,Wunderground v.1.15,2013-08-08 08:43:00,
2013-08-08 01:49:00,63.8,45.3,29.86,ESE,113,1.0,1.0,51,0.00,,,0.00,Wunderground v.1.15,2013-08-08 08:49:00,
2013-08-08 01:56:00,63.8,46.3,29.86,ESE,113,0.0,1.0,53,0.00,,,0.00,Wunderground v.1.15,2013-08-08 08:56:00,
2013-08-08 02:02:00,63.5,45.6,29.86,ESE,113,0.0,1.0,52,0.00,,,0.00,Wunderground v.1.15,2013-08-08 09:02:00,
2013-08-08 02:07:00,63.3,45.9,29.86,ESE,113,0.0,1.0,53,0.00,,,0.00,Wunderground v.1.15,2013-08-08 09:07:00,
2013-08-08 02:13:00,63.3,46.4,29.85,ESE,113,0.0,0.0,54,0.00,,,0.00,Wunderground v.1.15,2013-08-08 09:13:00,
2013-08-08 02:20:00,63.4,45.5,29.85,ESE,113,0.0,1.0,52,0.00,,,0.00,Wunderground v.1.15,2013-08-08 09:20:00,
2013-08-08 02:25:00,63.3,45.4,29.85,ESE,113,0.0,1.0,52,0.00,,,0.00,Wunderground v.1.15,2013-08-08 09:25:00,
2013-08-08 02:31:00,63.1,46.2,29.85,ESE,113,0.0,0.0,54,0.00,,,0.00,Wunderground v.1.15,2013-08-08 09:31:00,
2013-08-08 02:38:00,61.9,47.4,29.85,ESE,113,1.0,2.0,59,0.00,,,0.00,Wunderground v.1.15,2013-08-08 09:38:00,
2013-08-08 02:44:00,61.1,47.1,29.85,ESE,113,1.0,3.0,60,0.00,,,0.00,Wunderground v.1.15,2013-08-08 09:44:00,
2013-08-08 02:49:00,60.4,46.0,29.85,ESE,120,2.0,2.0,59,0.00,,,0.00,Wunderground v.1.15,2013-08-08 09:49:00,
2013-08-08 02:55:00,60.4,46.0,29.85,ESE,120,1.0,2.0,59,0.00,,,0.00,Wunderground v.1.15,2013-08-08 09:55:00,
2013-08-08 03:02:00,60.4,46.4,29.85,ESE,120,0.0,0.0,60,0.00,,,0.00,Wunderground v.1.15,2013-08-08 10:02:00,
2013-08-08 03:07:00,60.1,45.3,29.85,ESE,120,0.0,0.0,58,0.00,,,0.00,Wunderground v.1.15,2013-08-08 10:07:00,
2013-08-08 03:13:00,60.1,44.8,29.85,ESE,120,0.0,0.0,57,0.00,,,0.00,Wunderground v.1.15,2013-08-08 10:13:00,
2013-08-08 03:19:00,60.3,44.5,29.85,ESE,120,0.0,0.0,56,0.00,,,0.00,Wunderground v.1.15,2013-08-08 10:19:00,
2013-08-08 03:26:00,60.3,45.5,29.85,ESE,120,0.0,0.0,58,0.00,,,0.00,Wunderground v.1.15,2013-08-08 10:26:00,
2013-08-08 03:31:00,59.8,44.5,29.85,ESE,120,1.0,1.0,57,0.00,,,0.00,Wunderground v.1.15,2013-08-08 10:31:00,
2013-08-08 03:37:00,59.6,45.2,29.85,ESE,120,0.0,1.0,59,0.00,,,0.00,Wunderground v.1.15,2013-08-08 10:37:00,
2013-08-08 03:44:00,59.4,45.5,29.85,ESE,120,0.0,0.0,60,0.00,,,0.00,Wunderground v.1.15,2013-08-08 10:44:00,
2013-08-08 03:50:00,59.1,45.2,29.85,ESE,120,0.0,0.0,60,0.00,,,0.00,Wunderground v.1.15,2013-08-08 10:50:00,
2013-08-08 03:55:00,58.7,45.7,29.85,ESE,120,0.0,0.0,62,0.00,,,0.00,Wunderground v.1.15,2013-08-08 10:55:00,
2013-08-08 04:01:00,58.3,45.3,29.84,ESE,120,0.0,0.0,62,0.00,,,0.00,Wunderground v.1.15,2013-08-08 11:01:00,
2013-08-08 04:08:00,57.9,45.4,29.84,ESE,120,0.0,0.0,63,0.00,,,0.00,Wunderground v.1.15,2013-08-08 11:08:00,
2013-08-08 04:14:00,57.7,45.2,29.85,ESE,120,0.0,0.0,63,0.00,,,0.00,Wunderground v.1.15,2013-08-08 11:14:00,
2013-08-08 04:19:00,57.6,45.1,29.85,ESE,120,0.0,0.0,63,0.00,,,0.00,Wunderground v.1.15,2013-08-08 11:19:00,
2013-08-08 04:26:00,57.2,45.1,29.85,ESE,120,0.0,0.0,64,0.00,,,0.00,Wunderground v.1.15,2013-08-08 11:26:00,
2013-08-08 04:32:00,56.8,44.7,29.84,ESE,120,0.0,0.0,64,0.00,,,0.00,Wunderground v.1.15,2013-08-08 11:32:00,
2013-08-08 04:37:00,56.6,45.0,29.85,ESE,120,0.0,2.0,65,0.00,,,0.00,Wunderground v.1.15,2013-08-08 11:37:00,
2013-08-08 04:43:00,56.3,44.3,29.85,ESE,120,0.0,1.0,64,0.00,,,0.00,Wunderground v.1.15,2013-08-08 11:43:00,
2013-08-08 04:50:00,56.1,44.5,29.84,ESE,120,0.0,0.0,65,0.00,,,0.00,Wunderground v.1.15,2013-08-08 11:50:00,
2013-08-08 04:56:00,55.8,43.8,29.84,ESE,120,1.0,2.0,64,0.00,,,0.00,Wunderground v.1.15,2013-08-08 11:56:00,
2013-08-08 05:01:00,55.6,43.6,29.84,ESE,120,1.0,2.0,64,0.00,,,0.00,Wunderground v.1.15,2013-08-08 12:01:00,
2013-08-08 05:07:00,55.4,43.8,29.84,ESE,121,2.0,4.0,65,0.00,,,0.00,Wunderground v.1.15,2013-08-08 12:07:00,
2013-08-08 05:14:00,55.0,43.4,29.85,SE,130,2.0,2.0,65,0.00,,,0.00,Wunderground v.1.15,2013-08-08 12:14:00,
2013-08-08 05:19:00,54.7,43.6,29.85,SE,130,1.0,1.0,66,0.00,,,0.00,Wunderground v.1.15,2013-08-08 12:19:00,
2013-08-08 05:25:00,54.4,43.3,29.85,SE,130,1.0,1.0,66,0.00,,,0.00,Wunderground v.1.15,2013-08-08 12:25:00,
2013-08-08 05:31:00,54.2,43.5,29.85,SE,130,0.0,1.0,67,0.00,,,0.00,Wunderground v.1.15,2013-08-08 12:31:00,
2013-08-08 05:38:00,54.1,43.4,29.85,SE,130,0.0,1.0,67,0.00,,,0.00,Wunderground v.1.15,2013-08-08 12:38:00,
2013-08-08 05:43:00,53.9,43.2,29.85,SE,130,1.0,3.0,67,0.00,,,0.00,Wunderground v.1.15,2013-08-08 12:43:00,
2013-08-08 05:49:00,53.7,43.0,29.85,SE,130,2.0,2.0,67,0.00,,,0.00,Wunderground v.1.15,2013-08-08 12:49:00,
2013-08-08 05:56:00,53.7,43.0,29.85,SE,130,1.0,3.0,67,0.00,,,0.00,Wunderground v.1.15,2013-08-08 12:56:00,
2013-08-08 06:02:00,53.7,42.6,29.85,SE,131,2.0,3.0,66,0.00,,,0.00,Wunderground v.1.15,2013-08-08 13:02:00,
2013-08-08 06:07:00,53.7,43.0,29.85,SE,134,2.0,3.0,67,0.00,,,0.00,Wunderground v.1.15,2013-08-08 13:07:00,
2013-08-08 06:13:00,53.5,42.8,29.85,SE,134,1.0,2.0,67,0.00,,,0.00,Wunderground v.1.15,2013-08-08 13:13:00,
2013-08-08 06:20:00,53.3,42.6,29.85,SE,134,0.0,0.0,67,0.00,,,0.00,Wunderground v.1.15,2013-08-08 13:20:00,
2013-08-08 06:25:00,53.4,42.7,29.85,SE,134,0.0,3.0,67,0.00,,,0.00,Wunderground v.1.15,2013-08-08 13:25:00,
2013-08-08 06:31:00,53.4,43.1,29.85,SE,134,2.0,2.0,68,0.00,,,0.00,Wunderground v.1.15,2013-08-08 13:31:00,
2013-08-08 06:38:00,53.6,42.9,29.85,SE,134,2.0,2.0,67,0.00,,,0.00,Wunderground v.1.15,2013-08-08 13:38:00,
2013-08-08 06:44:00,53.8,42.7,29.85,SSE,153,2.0,4.0,66,0.00,,,0.00,Wunderground v.1.15,2013-08-08 13:44:00,
2013-08-08 06:49:00,54.2,42.7,29.86,SSE,166,2.0,2.0,65,0.00,,,0.00,Wunderground v.1.15,2013-08-08 13:49:00,
2013-08-08 06:55:00,54.5,43.4,29.85,South,178,3.0,4.0,66,0.00,,,0.00,Wunderground v.1.15,2013-08-08 13:55:00,
2013-08-08 07:01:00,54.6,43.1,29.85,South,178,3.0,3.0,65,0.00,,,0.00,Wunderground v.1.15,2013-08-08 14:01:00,
2013-08-08 07:08:00,55.1,43.5,29.85,South,179,3.0,4.0,65,0.00,,,0.00,Wunderground v.1.15,2013-08-08 14:08:00,
2013-08-08 07:13:00,55.4,43.8,29.85,South,179,2.0,3.0,65,0.00,,,0.00,Wunderground v.1.15,2013-08-08 14:13:00,
2013-08-08 07:19:00,55.7,44.1,29.85,South,179,0.0,0.0,65,0.00,,,0.00,Wunderground v.1.15,2013-08-08 14:19:00,
2013-08-08 07:26:00,56.2,44.6,29.85,South,179,0.0,1.0,65,0.00,,,0.00,Wunderground v.1.15,2013-08-08 14:26:00,
2013-08-08 07:32:00,56.9,45.7,29.85,South,179,0.0,2.0,66,0.00,,,0.00,Wunderground v.1.15,2013-08-08 14:32:00,
2013-08-08 07:37:00,57.5,45.8,29.85,South,179,1.0,3.0,65,0.00,,,0.00,Wunderground v.1.15,2013-08-08 14:37:00,
2013-08-08 07:43:00,58.0,45.9,29.85,South,179,2.0,3.0,64,0.00,,,0.00,Wunderground v.1.15,2013-08-08 14:43:00,
2013-08-08 07:50:00,58.8,46.2,29.85,South,179,2.0,4.0,63,0.00,,,0.00,Wunderground v.1.15,2013-08-08 14:50:00,
2013-08-08 07:55:00,59.6,46.1,29.85,South,179,2.0,4.0,61,0.00,,,0.00,Wunderground v.1.15,2013-08-08 14:55:00,
2013-08-08 08:01:00,60.3,46.4,29.85,South,179,1.0,1.0,60,0.00,,,0.00,Wunderground v.1.15,2013-08-08 15:01:00,
2013-08-08 08:08:00,61.2,46.3,29.85,South,179,1.0,1.0,58,0.00,,,0.00,Wunderground v.1.15,2013-08-08 15:08:00,
2013-08-08 08:14:00,62.0,46.1,29.85,South,179,0.0,1.0,56,0.00,,,0.00,Wunderground v.1.15,2013-08-08 15:14:00,
2013-08-08 08:19:00,63.0,46.6,29.85,South,179,0.0,0.0,55,0.00,,,0.00,Wunderground v.1.15,2013-08-08 15:19:00,
2013-08-08 08:25:00,64.2,46.7,29.85,South,178,0.0,0.0,53,0.00,,,0.00,Wunderground v.1.15,2013-08-08 15:25:00,
2013-08-08 08:32:00,65.1,47.0,29.85,South,178,0.0,0.0,52,0.00,,,0.00,Wunderground v.1.15,2013-08-08 15:32:00,
2013-08-08 08:38:00,65.8,47.2,29.84,South,178,0.0,1.0,51,0.00,,,0.00,Wunderground v.1.15,2013-08-08 15:38:00,
2013-08-08 08:43:00,66.7,46.9,29.84,South,178,0.0,0.0,49,0.00,,,0.00,Wunderground v.1.15,2013-08-08 15:43:00,
2013-08-08 08:50:00,67.8,46.8,29.84,South,178,0.0,0.0,47,0.00,,,0.00,Wunderground v.1.15,2013-08-08 15:50:00,
2013-08-08 08:56:00,68.8,47.2,29.84,South,178,0.0,0.0,46,0.00,,,0.00,Wunderground v.1.15,2013-08-08 15:56:00,
2013-08-08 09:01:00,70.0,46.5,29.84,South,178,0.0,0.0,43,0.00,,,0.00,Wunderground v.1.15,2013-08-08 16:01:00,
2013-08-08 09:07:00,70.6,46.4,29.84,South,178,0.0,1.0,42,0.00,,,0.00,Wunderground v.1.15,2013-08-08 16:07:00,
2013-08-08 09:13:00,70.5,46.3,29.84,South,178,1.0,1.0,42,0.00,,,0.00,Wunderground v.1.15,2013-08-08 16:13:00,
2013-08-08 09:20:00,71.3,46.4,29.84,South,177,1.0,3.0,41,0.00,,,0.00,Wunderground v.1.15,2013-08-08 16:20:00,
2013-08-08 09:25:00,72.3,48.5,29.84,SE,129,2.0,6.0,43,0.00,,,0.00,Wunderground v.1.15,2013-08-08 16:25:00,
2013-08-08 09:31:00,72.4,47.4,29.84,SE,125,4.0,4.0,41,0.00,,,0.00,Wunderground v.1.15,2013-08-08 16:31:00,
2013-08-08 09:38:00,72.9,46.5,29.84,SE,125,4.0,5.0,39,0.00,,,0.00,Wunderground v.1.15,2013-08-08 16:38:00,
2013-08-08 09:44:00,73.3,47.5,29.84,SE,125,4.0,4.0,40,0.00,,,0.00,Wunderground v.1.15,2013-08-08 16:44:00,
2013-08-08 09:49:00,73.7,46.5,29.84,East,92,5.0,9.0,38,0.00,,,0.00,Wunderground v.1.15,2013-08-08 16:49:00,
2013-08-08 09:55:00,73.5,47.7,29.84,East,92,6.0,11.0,40,0.00,,,0.00,Wunderground v.1.15,2013-08-08 16:55:00,
2013-08-08 10:02:00,74.1,48.2,29.84,East,91,6.0,6.0,40,0.00,,,0.00,Wunderground v.1.15,2013-08-08 17:02:00,
2013-08-08 10:07:00,74.9,47.6,29.84,East,91,5.0,8.0,38,0.00,,,0.00,Wunderground v.1.15,2013-08-08 17:07:00,
2013-08-08 10:13:00,74.7,46.7,29.84,East,91,5.0,6.0,37,0.00,,,0.00,Wunderground v.1.15,2013-08-08 17:13:00,
2013-08-08 10:20:00,75.3,47.9,29.84,East,98,5.0,7.0,38,0.00,,,0.00,Wunderground v.1.15,2013-08-08 17:20:00,
2013-08-08 10:26:00,75.7,46.8,29.83,East,98,6.0,6.0,36,0.00,,,0.00,Wunderground v.1.15,2013-08-08 17:26:00,
2013-08-08 10:31:00,76.0,47.1,29.83,East,93,6.0,6.0,36,0.00,,,0.00,Wunderground v.1.15,2013-08-08 17:31:00,
2013-08-08 10:37:00,77.1,46.6,29.83,East,93,4.0,6.0,34,0.00,,,0.00,Wunderground v.1.15,2013-08-08 17:37:00,
2013-08-08 10:44:00,77.2,46.7,29.83,East,93,4.0,6.0,34,0.00,,,0.00,Wunderground v.1.15,2013-08-08 17:44:00,
2013-08-08 10:49:00,77.2,46.7,29.83,East,93,3.0,7.0,34,0.00,,,0.00,Wunderground v.1.15,2013-08-08 17:49:00,
2013-08-08 10:55:00,77.1,45.8,29.83,East,93,5.0,7.0,33,0.00,,,0.00,Wunderground v.1.15,2013-08-08 17:55:00,
2013-08-08 11:01:00,77.3,45.9,29.83,East,93,5.0,8.0,33,0.00,,,0.00,Wunderground v.1.15,2013-08-08 18:01:00,
2013-08-08 11:08:00,77.5,46.1,29.82,East,93,4.0,8.0,33,0.00,,,0.00,Wunderground v.1.15,2013-08-08 18:08:00,
2013-08-08 11:14:00,78.1,46.6,29.83,East,93,3.0,5.0,33,0.00,,,0.00,Wunderground v.1.15,2013-08-08 18:14:00,
2013-08-08 11:19:00,78.9,45.7,29.83,East,93,1.0,1.0,31,0.00,,,0.00,Wunderground v.1.15,2013-08-08 18:19:00,
2013-08-08 11:25:00,80.1,46.7,29.82,East,93,1.0,3.0,31,0.00,,,0.00,Wunderground v.1.15,2013-08-08 18:25:00,
2013-08-08 11:32:00,81.1,44.9,29.82,East,93,2.0,2.0,28,0.00,,,0.00,Wunderground v.1.15,2013-08-08 18:32:00,
2013-08-08 11:38:00,81.2,45.0,29.82,East,89,2.0,8.0,28,0.00,,,0.00,Wunderground v.1.15,2013-08-08 18:38:00,
2013-08-08 11:43:00,79.8,46.5,29.82,East,89,3.0,3.0,31,0.00,,,0.00,Wunderground v.1.15,2013-08-08 18:43:00,
2013-08-08 11:50:00,79.7,46.4,29.82,East,89,3.0,5.0,31,0.00,,,0.00,Wunderground v.1.15,2013-08-08 18:50:00,
2013-08-08 11:56:00,79.5,46.2,29.81,East,94,4.0,6.0,31,0.00,,,0.00,Wunderground v.1.15,2013-08-08 18:56:00,
2013-08-08 12:02:00,79.6,46.3,29.81,East,90,4.0,4.0,31,0.00,,,0.00,Wunderground v.1.15,2013-08-08 19:02:00,
2013-08-08 12:07:00,80.7,45.5,29.81,East,90,3.0,4.0,29,0.00,,,0.00,Wunderground v.1.15,2013-08-08 19:07:00,
2013-08-08 12:13:00,80.7,45.5,29.81,East,95,3.0,8.0,29,0.00,,,0.00,Wunderground v.1.15,2013-08-08 19:13:00,
2013-08-08 12:20:00,82.2,44.9,29.80,East,90,3.0,8.0,27,0.00,,,0.00,Wunderground v.1.15,2013-08-08 19:20:00,
2013-08-08 12:26:00,82.3,45.0,29.80,East,90,2.0,2.0,27,0.00,,,0.00,Wunderground v.1.15,2013-08-08 19:26:00,
2013-08-08 12:31:00,82.7,45.3,29.80,East,90,2.0,7.0,27,0.00,,,0.00,Wunderground v.1.15,2013-08-08 19:31:00,
2013-08-08 12:38:00,83.2,44.7,29.80,East,90,2.0,7.0,26,0.00,,,0.00,Wunderground v.1.15,2013-08-08 19:38:00,
2013-08-08 12:44:00,84.1,44.5,29.80,East,90,2.0,5.0,25,0.00,,,0.00,Wunderground v.1.15,2013-08-08 19:44:00,
2013-08-08 12:49:00,83.4,43.9,29.80,East,90,3.0,6.0,25,0.00,,,0.00,Wunderground v.1.15,2013-08-08 19:49:00,
2013-08-08 12:55:00,83.7,45.2,29.80,East,90,1.0,6.0,26,0.00,,,0.00,Wunderground v.1.15,2013-08-08 19:55:00,
2013-08-08 13:01:00,84.7,45.0,29.79,East,86,2.0,2.0,25,0.00,,,0.00,Wunderground v.1.15,2013-08-08 20:01:00,
2013-08-08 13:08:00,85.4,43.4,29.79,NE,48,3.0,7.0,23,0.00,,,0.00,Wunderground v.1.15,2013-08-08 20:08:00,
2013-08-08 13:14:00,84.5,43.7,29.79,NE,46,3.0,7.0,24,0.00,,,0.00,Wunderground v.1.15,2013-08-08 20:14:00,
2013-08-08 13:19:00,84.2,44.6,29.79,NE,46,1.0,7.0,25,0.00,,,0.00,Wunderground v.1.15,2013-08-08 20:19:00,
2013-08-08 13:25:00,84.8,46.1,29.79,NE,49,1.0,9.0,26,0.00,,,0.00,Wunderground v.1.15,2013-08-08 20:25:00,
2013-08-08 13:32:00,85.4,43.4,29.79,NE,50,3.0,3.0,23,0.00,,,0.00,Wunderground v.1.15,2013-08-08 20:32:00,
2013-08-08 13:38:00,85.6,43.5,29.79,NE,46,3.0,3.0,23,0.00,,,0.00,Wunderground v.1.15,2013-08-08 20:38:00,
2013-08-08 13:43:00,85.0,44.2,29.79,NE,46,2.0,2.0,24,0.00,,,0.00,Wunderground v.1.15,2013-08-08 20:43:00,
2013-08-08 13:49:00,85.0,45.2,29.79,East,90,3.0,8.0,25,0.00,,,0.00,Wunderground v.1.15,2013-08-08 20:49:00,
2013-08-08 13:56:00,84.0,44.4,29.78,East,83,6.0,15.0,25,0.00,,,0.00,Wunderground v.1.15,2013-08-08 20:56:00,
2013-08-08 14:02:00,83.3,44.8,29.78,East,88,10.0,11.0,26,0.00,,,0.00,Wunderground v.1.15,2013-08-08 21:02:00,
2013-08-08 14:07:00,82.7,44.3,29.78,East,84,9.0,11.0,26,0.00,,,0.00,Wunderground v.1.15,2013-08-08 21:07:00,
2013-08-08 14:18:00,83.7,43.1,29.78,East,90,4.0,14.0,24,0.00,,,0.00,Wunderground v.1.15,2013-08-08 21:18:00,
2013-08-08 14:24:00,82.7,45.3,29.78,ESE,102,6.0,11.0,27,0.00,,,0.00,Wunderground v.1.15,2013-08-08 21:24:00,
2013-08-08 14:31:00,81.8,43.6,29.78,East,84,9.0,9.0,26,0.00,,,0.00,Wunderground v.1.15,2013-08-08 21:31:00,
2013-08-08 14:38:00,81.8,44.5,29.78,ESE,105,10.0,14.0,27,0.00,,,0.00,Wunderground v.1.15,2013-08-08 21:38:00,
2013-08-08 14:44:00,82.1,44.8,29.78,East,99,10.0,10.0,27,0.00,,,0.00,Wunderground v.1.15,2013-08-08 21:44:00,
2013-08-08 14:51:00,81.5,43.3,29.78,ESE,111,9.0,11.0,26,0.00,,,0.00,Wunderground v.1.15,2013-08-08 21:51:00,
2013-08-08 14:57:00,81.5,42.3,29.78,ESE,111,6.0,11.0,25,0.00,,,0.00,Wunderground v.1.15,2013-08-08 21:57:00,
2013-08-08 15:04:00,81.7,41.4,29.78,ESE,109,6.0,10.0,24,0.00,,,0.00,Wunderground v.1.15,2013-08-08 22:04:00,
2013-08-08 15:10:00,81.4,41.1,29.78,ESE,109,7.0,10.0,24,0.00,,,0.00,Wunderground v.1.15,2013-08-08 22:10:00,
2013-08-08 15:15:00,81.4,42.2,29.78,ESE,108,5.0,8.0,25,0.00,,,0.00,Wunderground v.1.15,2013-08-08 22:15:00,
2013-08-08 15:24:00,81.6,41.3,29.78,ESE,105,6.0,6.0,24,0.00,,,0.00,Wunderground v.1.15,2013-08-08 22:24:00,
2013-08-08 15:30:00,81.4,44.2,29.77,ESE,105,5.0,6.0,27,0.00,,,0.00,Wunderground v.1.15,2013-08-08 22:30:00,
2013-08-08 15:35:00,81.4,41.1,29.77,ESE,105,3.0,5.0,24,0.00,,,0.00,Wunderground v.1.15,2013-08-08 22:35:00,
2013-08-08 15:44:00,81.7,42.4,29.77,ESE,105,3.0,3.0,25,0.00,,,0.00,Wunderground v.1.15,2013-08-08 22:44:00,
2013-08-08 15:50:00,82.1,44.8,29.76,ESE,105,2.0,4.0,27,0.00,,,0.00,Wunderground v.1.15,2013-08-08 22:50:00,
2013-08-08 15:55:00,83.2,42.6,29.76,ESE,105,1.0,3.0,24,0.00,,,0.00,Wunderground v.1.15,2013-08-08 22:55:00,
2013-08-08 16:03:00,84.3,41.3,29.76,ESE,105,2.0,7.0,22,0.00,,,0.00,Wunderground v.1.15,2013-08-08 23:03:00,
2013-08-08 16:10:00,85.1,43.1,29.76,ESE,105,2.0,7.0,23,0.00,,,0.00,Wunderground v.1.15,2013-08-08 23:10:00,
2013-08-08 16:16:00,85.0,43.0,29.76,East,92,3.0,8.0,23,0.00,,,0.00,Wunderground v.1.15,2013-08-08 23:16:00,
2013-08-08 16:23:00,83.5,41.8,29.76,East,90,7.0,8.0,23,0.00,,,0.00,Wunderground v.1.15,2013-08-08 23:23:00,
2013-08-08 16:32:00,83.3,40.5,29.76,East,90,2.0,2.0,22,0.00,,,0.00,Wunderground v.1.15,2013-08-08 23:32:00,
2013-08-08 16:38:00,83.3,42.7,29.76,East,90,1.0,2.0,24,0.00,,,0.00,Wunderground v.1.15,2013-08-08 23:38:00,
2013-08-08 16:43:00,83.1,44.7,29.76,East,90,1.0,3.0,26,0.00,,,0.00,Wunderground v.1.15,2013-08-08 23:43:00,
2013-08-08 16:49:00,82.9,41.3,29.76,East,90,2.0,3.0,23,0.00,,,0.00,Wunderground v.1.15,2013-08-08 23:49:00,
2013-08-08 16:58:00,82.5,41.0,29.76,East,90,2.0,5.0,23,0.00,,,0.00,Wunderground v.1.15,2013-08-08 23:58:00,
2013-08-08 17:03:00,82.4,42.0,29.76,East,90,2.0,3.0,24,0.00,,,0.00,Wunderground v.1.15,2013-08-09 00:03:00,
2013-08-08 17:15:00,82.4,44.1,29.76,East,90,1.0,1.0,26,0.00,,,0.00,Wunderground v.1.15,2013-08-09 00:15:00,
2013-08-08 17:22:00,82.2,41.8,29.76,East,90,0.0,1.0,24,0.00,,,0.00,Wunderground v.1.15,2013-08-09 00:22:00,
2013-08-08 17:28:00,82.1,43.8,29.76,East,90,1.0,1.0,26,0.00,,,0.00,Wunderground v.1.15,2013-08-09 00:28:00,
2013-08-08 17:37:00,81.8,42.5,29.76,ENE,70,3.0,14.0,25,0.00,,,0.00,Wunderground v.1.15,2013-08-09 00:37:00,
2013-08-08 17:44:00,81.0,42.9,29.76,East,83,8.0,14.0,26,0.00,,,0.00,Wunderground v.1.15,2013-08-09 00:44:00,
2013-08-08 17:51:00,80.6,40.5,29.77,ENE,70,9.0,9.0,24,0.00,,,0.00,Wunderground v.1.15,2013-08-09 00:51:00,
2013-08-08 17:57:00,80.7,41.6,29.76,South,182,3.0,9.0,25,0.00,,,0.00,Wunderground v.1.15,2013-08-09 00:57:00,
2013-08-08 18:04:00,80.7,41.6,29.76,East,88,3.0,8.0,25,0.00,,,0.00,Wunderground v.1.15,2013-08-09 01:04:00,
2013-08-08 18:12:00,80.1,44.0,29.77,East,98,5.0,8.0,28,0.00,,,0.00,Wunderground v.1.15,2013-08-09 01:12:00,
2013-08-08 18:17:00,78.7,44.7,29.76,ESE,118,7.0,15.0,30,0.00,,,0.00,Wunderground v.1.15,2013-08-09 01:17:00,
2013-08-08 18:24:00,78.1,44.1,29.76,ESE,123,10.0,14.0,30,0.00,,,0.00,Wunderground v.1.15,2013-08-09 01:24:00,
2013-08-08 18:30:00,77.9,44.0,29.76,ESE,116,9.0,14.0,30,0.00,,,0.00,Wunderground v.1.15,2013-08-09 01:30:00,
2013-08-08 18:35:00,77.6,43.7,29.76,ESE,118,5.0,8.0,30,0.00,,,0.00,Wunderground v.1.15,2013-08-09 01:35:00,
2013-08-08 18:41:00,77.6,43.7,29.75,SE,129,3.0,3.0,30,0.00,,,0.00,Wunderground v.1.15,2013-08-09 01:41:00,
2013-08-08 18:48:00,77.6,44.6,29.75,SE,129,2.0,3.0,31,0.00,,,0.00,Wunderground v.1.15,2013-08-09 01:48:00,
2013-08-08 18:54:00,77.8,43.9,29.75,SE,129,0.0,2.0,30,0.00,,,0.00,Wunderground v.1.15,2013-08-09 01:54:00,
2013-08-08 19:01:00,77.9,47.3,29.75,SE,129,1.0,3.0,34,0.00,,,0.00,Wunderground v.1.15,2013-08-09 02:01:00,
2013-08-08 19:07:00,77.1,45.8,29.75,SE,129,1.0,3.0,33,0.00,,,0.00,Wunderground v.1.15,2013-08-09 02:07:00,
2013-08-08 19:14:00,76.5,49.7,29.75,SSW,210,1.0,3.0,39,0.00,,,0.00,Wunderground v.1.15,2013-08-09 02:14:00,
2013-08-08 19:19:00,75.9,49.8,29.75,SW,234,1.0,3.0,40,0.00,,,0.00,Wunderground v.1.15,2013-08-09 02:19:00,
2013-08-08 19:25:00,75.6,51.5,29.75,SW,234,1.0,1.0,43,0.00,,,0.00,Wunderground v.1.15,2013-08-09 02:25:00,
2013-08-08 19:31:00,75.4,52.0,29.75,SW,234,0.0,0.0,44,0.00,,,0.00,Wunderground v.1.15,2013-08-09 02:31:00,
2013-08-08 19:38:00,75.1,52.3,29.75,SW,234,0.0,2.0,45,0.00,,,0.00,Wunderground v.1.15,2013-08-09 02:38:00,
2013-08-08 19:44:00,74.6,51.9,29.75,West,273,1.0,3.0,45,0.00,,,0.00,Wunderground v.1.15,2013-08-09 02:44:00,
2013-08-08 19:49:00,74.0,51.9,29.75,WNW,287,2.0,3.0,46,0.00,,,0.00,Wunderground v.1.15,2013-08-09 02:49:00,
2013-08-08 19:56:00,73.3,52.4,29.75,WNW,296,3.0,5.0,48,0.00,,,0.00,Wunderground v.1.15,2013-08-09 02:56:00,
2013-08-08 20:02:00,72.8,52.5,29.75,WNW,298,4.0,4.0,49,0.00,,,0.00,Wunderground v.1.15,2013-08-09 03:02:00,
2013-08-08 20:08:00,72.4,52.7,29.75,WNW,299,4.0,5.0,50,0.00,,,0.00,Wunderground v.1.15,2013-08-09 03:08:00,
2013-08-08 20:14:00,72.2,52.5,29.75,WNW,292,2.0,3.0,50,0.00,,,0.00,Wunderground v.1.15,2013-08-09 03:14:00,
2013-08-08 20:19:00,72.1,52.4,29.76,WSW,248,2.0,6.0,50,0.00,,,0.00,Wunderground v.1.15,2013-08-09 03:19:00,
2013-08-08 20:26:00,71.9,52.2,29.76,WSW,255,3.0,4.0,50,0.00,,,0.00,Wunderground v.1.15,2013-08-09 03:26:00,
2013-08-08 20:32:00,71.7,52.1,29.76,WSW,255,3.0,3.0,50,0.00,,,0.00,Wunderground v.1.15,2013-08-09 03:32:00,
2013-08-08 20:37:00,71.5,52.4,29.77,WSW,255,1.0,3.0,51,0.00,,,0.00,Wunderground v.1.15,2013-08-09 03:37:00,
2013-08-08 20:43:00,71.2,52.7,29.76,WSW,255,1.0,1.0,52,0.00,,,0.00,Wunderground v.1.15,2013-08-09 03:43:00,
2013-08-08 20:50:00,70.8,51.8,29.77,WSW,255,0.0,1.0,51,0.00,,,0.00,Wunderground v.1.15,2013-08-09 03:50:00,
2013-08-08 20:56:00,70.8,51.2,29.77,WSW,255,0.0,0.0,50,0.00,,,0.00,Wunderground v.1.15,2013-08-09 03:56:00,
2013-08-08 21:01:00,70.9,51.3,29.77,WSW,255,0.0,0.0,50,0.00,,,0.00,Wunderground v.1.15,2013-08-09 04:01:00,
2013-08-08 21:03:00,71.0,51.4,29.77,WSW,255,0.0,0.0,50,0.00,,,0.00,Wunderground v.1.15,2013-08-09 04:03:00,
2013-08-08 21:05:00,70.9,51.9,29.77,WSW,255,0.0,0.0,51,0.00,,,0.00,Wunderground v.1.15,2013-08-09 04:05:00,
2013-08-08 21:11:00,70.7,52.2,29.78,WSW,255,0.0,0.0,52,0.00,,,0.00,Wunderground v.1.15,2013-08-09 04:11:00,
2013-08-08 21:18:00,70.2,51.7,29.78,WSW,255,0.0,0.0,52,0.00,,,0.00,Wunderground v.1.15,2013-08-09 04:18:00,
2013-08-08 21:20:00,70.1,51.1,29.78,WSW,255,0.0,0.0,51,0.00,,,0.00,Wunderground v.1.15,2013-08-09 04:20:00,
2013-08-08 21:23:00,70.0,51.6,29.78,WSW,255,0.0,0.0,52,0.00,,,0.00,Wunderground v.1.15,2013-08-09 04:23:00,
2013-08-08 21:29:00,69.9,52.0,29.79,WSW,255,0.0,0.0,53,0.00,,,0.00,Wunderground v.1.15,2013-08-09 04:29:00,
2013-08-08 21:36:00,69.7,51.8,29.78,WSW,255,0.0,0.0,53,0.00,,,0.00,Wunderground v.1.15,2013-08-09 04:36:00,
2013-08-08 21:42:00,69.2,51.3,29.78,WSW,255,0.0,0.0,53,0.00,,,0.00,Wunderground v.1.15,2013-08-09 04:42:00,
2013-08-08 21:47:00,69.1,51.2,29.78,WSW,255,0.0,0.0,53,0.00,,,0.00,Wunderground v.1.15,2013-08-09 04:47:00,
2013-08-08 21:53:00,68.8,51.0,29.78,WSW,255,0.0,0.0,53,0.00,,,0.00,Wunderground v.1.15,2013-08-09 04:53:00,
2013-08-08 22:03:00,68.4,52.1,29.79,WSW,255,0.0,0.0,56,0.00,,,0.00,Wunderground v.1.15,2013-08-09 05:03:00,
2013-08-08 22:09:00,67.8,52.0,29.80,SW,227,1.0,4.0,57,0.00,,,0.00,Wunderground v.1.15,2013-08-09 05:09:00,
2013-08-08 22:15:00,67.1,51.8,29.80,SW,227,3.0,3.0,58,0.00,,,0.00,Wunderground v.1.15,2013-08-09 05:15:00,
2013-08-08 22:22:00,67.2,51.0,29.79,SW,227,2.0,2.0,56,0.00,,,0.00,Wunderground v.1.15,2013-08-09 05:22:00,
2013-08-08 22:27:00,67.6,50.4,29.80,SW,227,1.0,2.0,54,0.00,,,0.00,Wunderground v.1.15,2013-08-09 05:27:00,
2013-08-08 22:33:00,68.1,50.8,29.80,SW,227,1.0,1.0,54,0.00,,,0.00,Wunderground v.1.15,2013-08-09 05:33:00,
2013-08-08 22:40:00,68.3,50.5,29.80,SW,227,0.0,1.0,53,0.00,,,0.00,Wunderground v.1.15,2013-08-09 05:40:00,
2013-08-08 22:46:00,68.4,51.1,29.79,SW,227,0.0,0.0,54,0.00,,,0.00,Wunderground v.1.15,2013-08-09 05:46:00,
2013-08-08 22:51:00,68.3,50.5,29.79,SW,227,0.0,0.0,53,0.00,,,0.00,Wunderground v.1.15,2013-08-09 05:51:00,
2013-08-08 22:57:00,68.3,50.5,29.79,SW,227,0.0,0.0,53,0.00,,,0.00,Wunderground v.1.15,2013-08-09 05:57:00,
2013-08-08 23:04:00,68.2,50.9,29.79,SW,227,0.0,0.0,54,0.00,,,0.00,Wunderground v.1.15,2013-08-09 06:04:00,
2013-08-08 23:10:00,68.2,50.9,29.79,SW,227,0.0,0.0,54,0.00,,,0.00,Wunderground v.1.15,2013-08-09 06:10:00,
2013-08-08 23:15:00,68.1,51.3,29.79,SW,227,0.0,0.0,55,0.00,,,0.00,Wunderground v.1.15,2013-08-09 06:15:00,
2013-08-08 23:22:00,68.0,51.2,29.79,SW,227,0.0,0.0,55,0.00,,,0.00,Wunderground v.1.15,2013-08-09 06:22:00,
2013-08-08 23:28:00,67.9,52.1,29.79,SW,227,0.0,0.0,57,0.00,,,0.00,Wunderground v.1.15,2013-08-09 06:28:00,
2013-08-08 23:33:00,67.8,51.0,29.79,SW,227,0.0,0.0,55,0.00,,,0.00,Wunderground v.1.15,2013-08-09 06:33:00,
2013-08-08 23:39:00,67.6,51.3,29.79,SW,227,0.0,0.0,56,0.00,,,0.00,Wunderground v.1.15,2013-08-09 06:39:00,
2013-08-08 23:46:00,67.4,51.6,29.79,SW,227,0.0,0.0,57,0.00,,,0.00,Wunderground v.1.15,2013-08-09 06:46:00,
2013-08-08 23:51:00,67.2,50.5,29.79,SW,227,0.0,0.0,55,0.00,,,0.00,Wunderground v.1.15,2013-08-09 06:51:00,
2013-08-08 23:57:00,67.2,51.0,29.79,SW,227,0.0,0.0,56,0.00,,,0.00,Wunderground v.1.15,2013-08-09 06:57:00,